D/T METAR WX W/DIR W/SPE G/SPE TEMP DEWP
25/02/20 15:50 EGPU 251550Z 30005KT 9999 VCSH FEW011 SCT020 FEW025CB 03/02 Q0989 VCSH WNW (300°) 5.8mph 3°C 2°C
25/02/20 14:50 EGPU 251450Z 26004G14KT 9999 -SHRAGS SCT019 SCT025CB 05/02 Q0990 -SHRA -SHGS W (260°) 4.6mph 16.1mph 5°C 2°C
25/02/20 14:20 EGPU 251420Z 25003KT 9999 VCSH FEW015 SCT025CB 05/03 Q0990 VCSH WSW (250°) 3.5mph 5°C 3°C
25/02/20 13:50 EGPU 251350Z 34006KT 9999 VCSH FEW025CB SCT037 04/02 Q0990 VCSH NNW (340°) 6.9mph 4°C 2°C
25/02/20 13:20 EGPU 251320Z 32008KT 290V350 9999 VCSH FEW025CB SCT039 05/03 Q0990 VCSH NW (320°) 9.2mph 5°C 3°C
25/02/20 12:50 EGPU 251250Z 30009KT 9999 VCSH FEW015 SCT027 BKN048 04/02 Q0990 VCSH WNW (300°) 10.4mph 4°C 2°C
25/02/20 12:20 EGPU 251220Z 31007KT 9999 -SHRA SCT018 FEW023CB BKN025 04/02 Q0990 -SHRA NW (310°) 8.1mph 4°C 2°C
25/02/20 11:20 EGPU 251120Z 31005KT 9999 VCSH FEW017 SCT025CB 03/02 Q0991 VCSH NW (310°) 5.8mph 3°C 2°C
25/02/20 10:50 EGPU 251050Z 32008KT 9999 VCSH FEW018 SCT025CB 04/02 Q0991 VCSH NW (320°) 9.2mph 4°C 2°C
25/02/20 09:50 EGPU 250950Z 26009KT 9999 VCSH SCT023 FEW026CB 04/02 Q0991 VCSH W (260°) 10.4mph 4°C 2°C
25/02/20 08:50 EGPU 250850Z 28007KT 9999 VCSH SCT023 FEW025CB 03/02 Q0991 VCSH W (280°) 8.1mph 3°C 2°C
25/02/20 08:20 EGPU 250820Z AUTO 28007KT 9999 NCD 03/02 Q0991 REUP W (280°) 8.1mph 3°C 2°C
25/02/20 07:50 EGPU 250750Z AUTO 29010KT 250V330 9999 UP FEW013/// SCT018/// 03/01 Q0992 UP WNW (290°) 11.5mph 3°C 1°C
25/02/20 07:20 EGPU 250720Z AUTO 33004KT 9999 FEW018/// 01/00 Q0992 RERA NNW (330°) 4.6mph 1°C 0°C
25/02/20 06:50 EGPU 250650Z AUTO 33007KT 9999 SCT015/// SCT021/// 02/01 Q0992 RERA NNW (330°) 8.1mph 2°C 1°C
25/02/20 06:20 EGPU 250620Z AUTO 33011KT 3800 RA SCT012/// BKN021/// 02/01 Q0992 RA NNW (330°) 12.7mph 2°C 1°C
25/02/20 05:50 EGPU 250550Z AUTO 26005KT 9999 -RA SCT017/// SCT030/// 03/01 Q0993 -RA W (260°) 5.8mph 3°C 1°C
25/02/20 05:20 EGPU 250520Z AUTO 25009KT 210V290 9999 -RA FEW021/// 03/01 Q0993 -RA WSW (250°) 10.4mph 3°C 1°C
25/02/20 04:50 EGPU 250450Z AUTO 27010KT 9999 UP SCT017/// 03/01 Q0993 UP W (270°) 11.5mph 3°C 1°C
25/02/20 04:20 EGPU 250420Z AUTO 25007KT 9999 FEW024/// 02/01 Q0993 WSW (250°) 8.1mph 2°C 1°C
25/02/20 03:50 EGPU 250350Z AUTO 27006KT 9999 NCD 02/00 Q0993 W (270°) 6.9mph 2°C 0°C
25/02/20 03:20 EGPU 250320Z AUTO 24004KT 210V270 9999 NCD 02/00 Q0994 RERA WSW (240°) 4.6mph 2°C 0°C
25/02/20 02:50 EGPU 250250Z AUTO 28006KT 250V310 9999 FEW020/// 02/01 Q0994 RERA W (280°) 6.9mph 2°C 1°C
25/02/20 02:20 EGPU 250220Z AUTO 30012KT 6000 RA SCT014/// 02/01 Q0995 RA WNW (300°) 13.8mph 2°C 1°C
25/02/20 01:50 EGPU 250150Z AUTO 27008KT 230V290 9999 -RA FEW032/// 03/02 Q0995 -RA W (270°) 9.2mph 3°C 2°C
25/02/20 01:20 EGPU 250120Z AUTO 32010KT 9999 -RA FEW014/// BKN030/// 03/01 Q0995 -RA NW (320°) 11.5mph 3°C 1°C
25/02/20 00:50 EGPU 250050Z AUTO 30005KT 9999 -RA FEW020/// BKN024/// 04/02 Q0996 -RA WNW (300°) 5.8mph 4°C 2°C
25/02/20 00:20 EGPU 250020Z AUTO 28009KT 9999 RA BKN020/// 04/02 Q0996 RA W (280°) 10.4mph 4°C 2°C
24/02/20 23:50 EGPU 242350Z AUTO 29011KT 9999 FEW027/// 04/02 Q0996 RERA WNW (290°) 12.7mph 4°C 2°C
24/02/20 23:20 EGPU 242320Z AUTO 30007KT 9999 NCD 03/02 Q0996 WNW (300°) 8.1mph 3°C 2°C
24/02/20 22:50 EGPU 242250Z AUTO 30009KT 9999 FEW017/// 04/02 Q0996 WNW (300°) 10.4mph 4°C 2°C
24/02/20 22:20 EGPU 242220Z AUTO 29006KT 9999 SCT013/// 03/02 Q0997 RERA WNW (290°) 6.9mph 3°C 2°C
24/02/20 21:50 EGPU 242150Z AUTO 27006KT 9999 FEW018/// 03/01 Q0997 RERA W (270°) 6.9mph 3°C 1°C
24/02/20 21:20 EGPU 242120Z AUTO 28008KT 9999 // BKN017/// SCT023/// 04/02 Q0997 W (280°) 9.2mph 4°C 2°C
24/02/20 20:50 EGPU 242050Z AUTO 29004KT 250V310 9999 SCT018/// 03/01 Q0997 WNW (290°) 4.6mph 3°C 1°C
24/02/20 20:20 EGPU 242020Z AUTO 31007KT 9999 FEW020/// 03/01 Q0997 NW (310°) 8.1mph 3°C 1°C
24/02/20 19:50 EGPU 241950Z AUTO 31007KT 9999 SCT021/// 03/01 Q0998 NW (310°) 8.1mph 3°C 1°C
24/02/20 19:20 EGPU 241920Z AUTO 31010KT 9999 BKN021/// 04/01 Q0998 NW (310°) 11.5mph 4°C 1°C
24/02/20 18:50 EGPU 241850Z AUTO 31009KT 9999 BKN019/// 04/01 Q0998 NW (310°) 10.4mph 4°C 1°C
24/02/20 18:20 EGPU 241820Z AUTO 32012KT 9999 SCT018/// 03/01 Q0998 NW (320°) 13.8mph 3°C 1°C
24/02/20 17:50 EGPU 241750Z 32013KT 9999 FEW016 BKN019 04/02 Q0998 NW (320°) 15.0mph 4°C 2°C
24/02/20 17:20 EGPU 241720Z 32013KT 9999 SCT011 BKN020 04/02 Q0997 NW (320°) 15.0mph 4°C 2°C
24/02/20 16:50 EGPU 241650Z 33013KT 9000 SCT021 04/02 Q0997 NNW (330°) 15.0mph 4°C 2°C
24/02/20 16:20 EGPU 241620Z 34011KT 9000 BKN013 SCT019 BKN024 04/02 Q0997 NNW (340°) 12.7mph 4°C 2°C
24/02/20 15:50 EGPU 241550Z 35010KT 9999 SCT012 BKN015 04/02 Q0997 N (350°) 11.5mph 4°C 2°C
24/02/20 15:20 EGPU 241520Z 35009KT 9999 SCT012 SCT022 BKN049 04/03 Q0997 N (350°) 10.4mph 4°C 3°C
24/02/20 14:20 EGPU 241420Z 01013KT 9999 -RA BKN009 BKN016 04/02 Q0997 -RA N (10°) 15.0mph 4°C 2°C
24/02/20 13:50 EGPU 241350Z 03013KT 9999 -RA SCT012 BKN020 04/02 Q0996 -RA NNE (30°) 15.0mph 4°C 2°C